<?xml version="1.0" encoding="UTF-8" standalone="no" ?>
<gpx xmlns="http://www.topografix.com/GPX/1/1" xmlns:xsi="http://www.w3.org/2001/XMLSchema-instance" xsi:schemaLocation="http://www.topografix.com/GPX/1/1 http://www.topografix.com/GPX/1/1/gpx.xsd" version="1.1" creator="VisuGPX - https://www.visugpx.com">
  <metadata>
    <name>Chatellier 25 km</name>
  </metadata>
  <trk>
    <name><![CDATA[Chatellier 25 km_1]]></name>
    <trkseg>
      <trkpt lat="48.77127" lon="-0.58081">
        <ele>198.6</ele>
      </trkpt>
      <trkpt lat="48.77157" lon="-0.58108">
        <ele>199.4</ele>
      </trkpt>
      <trkpt lat="48.76979" lon="-0.58287">
        <ele>197.5</ele>
      </trkpt>
      <trkpt lat="48.76741" lon="-0.58372">
        <ele>190.6</ele>
      </trkpt>
      <trkpt lat="48.76739" lon="-0.58277">
        <ele>190</ele>
      </trkpt>
      <trkpt lat="48.76674" lon="-0.58235">
        <ele>191.3</ele>
      </trkpt>
      <trkpt lat="48.76603" lon="-0.58274">
        <ele>191.6</ele>
      </trkpt>
      <trkpt lat="48.7653" lon="-0.58393">
        <ele>186.3</ele>
      </trkpt>
      <trkpt lat="48.76394" lon="-0.5772">
        <ele>212.9</ele>
      </trkpt>
      <trkpt lat="48.76394" lon="-0.57321">
        <ele>209.1</ele>
      </trkpt>
      <trkpt lat="48.76348" lon="-0.57168">
        <ele>211.8</ele>
      </trkpt>
      <trkpt lat="48.76336" lon="-0.5712">
        <ele>213.6</ele>
      </trkpt>
      <trkpt lat="48.76343" lon="-0.57039">
        <ele>217.2</ele>
      </trkpt>
      <trkpt lat="48.76227" lon="-0.56966">
        <ele>217.7</ele>
      </trkpt>
      <trkpt lat="48.76197" lon="-0.56912">
        <ele>216.8</ele>
      </trkpt>
      <trkpt lat="48.7605" lon="-0.56847">
        <ele>214.5</ele>
      </trkpt>
      <trkpt lat="48.75957" lon="-0.56833">
        <ele>212</ele>
      </trkpt>
      <trkpt lat="48.75901" lon="-0.57">
        <ele>208</ele>
      </trkpt>
      <trkpt lat="48.75076" lon="-0.56733">
        <ele>208</ele>
      </trkpt>
      <trkpt lat="48.75028" lon="-0.56654">
        <ele>208.7</ele>
      </trkpt>
      <trkpt lat="48.7488" lon="-0.56879">
        <ele>197.8</ele>
      </trkpt>
      <trkpt lat="48.74682" lon="-0.56491">
        <ele>196.6</ele>
      </trkpt>
      <trkpt lat="48.74482" lon="-0.56697">
        <ele>188.4</ele>
      </trkpt>
      <trkpt lat="48.74291" lon="-0.56393">
        <ele>186.8</ele>
      </trkpt>
      <trkpt lat="48.74135" lon="-0.56253">
        <ele>188.1</ele>
      </trkpt>
      <trkpt lat="48.73972" lon="-0.56198">
        <ele>189.4</ele>
      </trkpt>
      <trkpt lat="48.73859" lon="-0.56138">
        <ele>189</ele>
      </trkpt>
      <trkpt lat="48.73835" lon="-0.56045">
        <ele>189</ele>
      </trkpt>
      <trkpt lat="48.73856" lon="-0.55938">
        <ele>190.2</ele>
      </trkpt>
      <trkpt lat="48.73837" lon="-0.5578">
        <ele>193.7</ele>
      </trkpt>
      <trkpt lat="48.73781" lon="-0.55762">
        <ele>193.2</ele>
      </trkpt>
      <trkpt lat="48.73699" lon="-0.55683">
        <ele>191.8</ele>
      </trkpt>
      <trkpt lat="48.73625" lon="-0.55663">
        <ele>190.7</ele>
      </trkpt>
      <trkpt lat="48.73623" lon="-0.55628">
        <ele>192.3</ele>
      </trkpt>
      <trkpt lat="48.73612" lon="-0.55586">
        <ele>193.9</ele>
      </trkpt>
      <trkpt lat="48.7374" lon="-0.55372">
        <ele>201.3</ele>
      </trkpt>
      <trkpt lat="48.73196" lon="-0.54893">
        <ele>212.3</ele>
      </trkpt>
      <trkpt lat="48.73075" lon="-0.54786">
        <ele>207.9</ele>
      </trkpt>
      <trkpt lat="48.72939" lon="-0.5503">
        <ele>196.2</ele>
      </trkpt>
      <trkpt lat="48.72882" lon="-0.55151">
        <ele>193.6</ele>
      </trkpt>
      <trkpt lat="48.72684" lon="-0.55266">
        <ele>201.9</ele>
      </trkpt>
      <trkpt lat="48.72596" lon="-0.55391">
        <ele>201.8</ele>
      </trkpt>
      <trkpt lat="48.72486" lon="-0.55417">
        <ele>204</ele>
      </trkpt>
      <trkpt lat="48.72458" lon="-0.55481">
        <ele>204.4</ele>
      </trkpt>
      <trkpt lat="48.72462" lon="-0.5547">
        <ele>204</ele>
        <time>2012-09-08T08:45:07Z</time>
      </trkpt>
      <trkpt lat="48.72451" lon="-0.55476">
        <ele>204</ele>
        <time>2012-09-08T08:45:15Z</time>
      </trkpt>
      <trkpt lat="48.72403" lon="-0.55499">
        <ele>205</ele>
        <time>2012-09-08T08:45:30Z</time>
      </trkpt>
      <trkpt lat="48.72358" lon="-0.5552">
        <ele>204.4</ele>
        <time>2012-09-08T08:45:41Z</time>
      </trkpt>
      <trkpt lat="48.72342" lon="-0.55527">
        <ele>205</ele>
        <time>2012-09-08T08:45:45Z</time>
      </trkpt>
      <trkpt lat="48.72337" lon="-0.55528">
        <ele>205</ele>
        <time>2012-09-08T08:45:46Z</time>
      </trkpt>
      <trkpt lat="48.7227" lon="-0.5556">
        <ele>205.8</ele>
        <time>2012-09-08T08:46:03Z</time>
      </trkpt>
      <trkpt lat="48.72251" lon="-0.5557">
        <ele>206.4</ele>
        <time>2012-09-08T08:46:08Z</time>
      </trkpt>
      <trkpt lat="48.7218" lon="-0.55599">
        <ele>206.8</ele>
        <time>2012-09-08T08:46:24Z</time>
      </trkpt>
      <trkpt lat="48.72098" lon="-0.55611">
        <ele>206.8</ele>
        <time>2012-09-08T08:46:41Z</time>
      </trkpt>
      <trkpt lat="48.72041" lon="-0.55605">
        <ele>207.8</ele>
        <time>2012-09-08T08:46:54Z</time>
      </trkpt>
      <trkpt lat="48.72031" lon="-0.55603">
        <ele>208.2</ele>
        <time>2012-09-08T08:46:56Z</time>
      </trkpt>
      <trkpt lat="48.71964" lon="-0.55582">
        <ele>208.8</ele>
        <time>2012-09-08T08:47:10Z</time>
      </trkpt>
      <trkpt lat="48.71921" lon="-0.55562">
        <ele>209.2</ele>
        <time>2012-09-08T08:47:19Z</time>
      </trkpt>
      <trkpt lat="48.7188" lon="-0.55533">
        <ele>209.8</ele>
        <time>2012-09-08T08:47:28Z</time>
      </trkpt>
      <trkpt lat="48.71827" lon="-0.55487">
        <ele>210.2</ele>
        <time>2012-09-08T08:47:40Z</time>
      </trkpt>
      <trkpt lat="48.71758" lon="-0.55427">
        <ele>210.6</ele>
        <time>2012-09-08T08:47:56Z</time>
      </trkpt>
      <trkpt lat="48.71695" lon="-0.55374">
        <ele>212.2</ele>
        <time>2012-09-08T08:48:11Z</time>
      </trkpt>
      <trkpt lat="48.71639" lon="-0.55324">
        <ele>212.6</ele>
        <time>2012-09-08T08:48:25Z</time>
      </trkpt>
      <trkpt lat="48.71622" lon="-0.55309">
        <ele>212.6</ele>
        <time>2012-09-08T08:48:29Z</time>
      </trkpt>
      <trkpt lat="48.71554" lon="-0.55254">
        <ele>212.2</ele>
        <time>2012-09-08T08:48:46Z</time>
      </trkpt>
      <trkpt lat="48.715" lon="-0.55206">
        <ele>212.2</ele>
        <time>2012-09-08T08:49:04Z</time>
      </trkpt>
      <trkpt lat="48.71492" lon="-0.55194">
        <ele>212.2</ele>
        <time>2012-09-08T08:49:08Z</time>
      </trkpt>
      <trkpt lat="48.71482" lon="-0.55188">
        <ele>212.6</ele>
        <time>2012-09-08T08:49:12Z</time>
      </trkpt>
      <trkpt lat="48.71453" lon="-0.55166">
        <ele>212.2</ele>
        <time>2012-09-08T08:49:23Z</time>
      </trkpt>
      <trkpt lat="48.71401" lon="-0.55122">
        <ele>210.6</ele>
        <time>2012-09-08T08:49:36Z</time>
      </trkpt>
      <trkpt lat="48.71331" lon="-0.5506">
        <ele>209.8</ele>
        <time>2012-09-08T08:49:51Z</time>
      </trkpt>
      <trkpt lat="48.71252" lon="-0.54997">
        <ele>208.2</ele>
        <time>2012-09-08T08:50:06Z</time>
      </trkpt>
      <trkpt lat="48.71177" lon="-0.54935">
        <ele>207.4</ele>
        <time>2012-09-08T08:50:20Z</time>
      </trkpt>
      <trkpt lat="48.71107" lon="-0.5489">
        <ele>207.4</ele>
        <time>2012-09-08T08:50:33Z</time>
      </trkpt>
      <trkpt lat="48.71067" lon="-0.54874">
        <ele>205.8</ele>
        <time>2012-09-08T08:50:41Z</time>
      </trkpt>
      <trkpt lat="48.70973" lon="-0.54843">
        <ele>205.8</ele>
        <time>2012-09-08T08:50:58Z</time>
      </trkpt>
      <trkpt lat="48.70942" lon="-0.54837">
        <ele>205.4</ele>
        <time>2012-09-08T08:51:05Z</time>
      </trkpt>
      <trkpt lat="48.70872" lon="-0.54834">
        <ele>205.8</ele>
        <time>2012-09-08T08:51:19Z</time>
      </trkpt>
      <trkpt lat="48.70815" lon="-0.54838">
        <ele>205.8</ele>
        <time>2012-09-08T08:51:31Z</time>
      </trkpt>
      <trkpt lat="48.70762" lon="-0.5485">
        <ele>205.8</ele>
        <time>2012-09-08T08:51:46Z</time>
      </trkpt>
      <trkpt lat="48.70744" lon="-0.54859">
        <ele>205.8</ele>
        <time>2012-09-08T08:51:53Z</time>
      </trkpt>
      <trkpt lat="48.70722" lon="-0.54851">
        <ele>206.4</ele>
        <time>2012-09-08T08:52:04Z</time>
      </trkpt>
      <trkpt lat="48.70717" lon="-0.54856">
        <ele>206.4</ele>
        <time>2012-09-08T08:52:06Z</time>
      </trkpt>
      <trkpt lat="48.70712" lon="-0.54862">
        <ele>205.8</ele>
        <time>2012-09-08T08:52:08Z</time>
      </trkpt>
      <trkpt lat="48.70672" lon="-0.54881">
        <ele>205</ele>
        <time>2012-09-08T08:52:18Z</time>
      </trkpt>
      <trkpt lat="48.70611" lon="-0.54915">
        <ele>204.4</ele>
        <time>2012-09-08T08:52:32Z</time>
      </trkpt>
      <trkpt lat="48.70555" lon="-0.5495">
        <ele>203.4</ele>
        <time>2012-09-08T08:52:44Z</time>
      </trkpt>
      <trkpt lat="48.70502" lon="-0.54987">
        <ele>203</ele>
        <time>2012-09-08T08:52:55Z</time>
      </trkpt>
      <trkpt lat="48.70422" lon="-0.55037">
        <ele>202</ele>
        <time>2012-09-08T08:53:10Z</time>
      </trkpt>
      <trkpt lat="48.70375" lon="-0.55067">
        <ele>202.4</ele>
        <time>2012-09-08T08:53:19Z</time>
      </trkpt>
      <trkpt lat="48.70342" lon="-0.55089">
        <ele>202</ele>
        <time>2012-09-08T08:53:26Z</time>
      </trkpt>
      <trkpt lat="48.70268" lon="-0.55134">
        <ele>202.4</ele>
        <time>2012-09-08T08:53:42Z</time>
      </trkpt>
      <trkpt lat="48.70214" lon="-0.55167">
        <ele>202.4</ele>
        <time>2012-09-08T08:53:56Z</time>
      </trkpt>
      <trkpt lat="48.70184" lon="-0.55186">
        <ele>203</ele>
        <time>2012-09-08T08:54:08Z</time>
      </trkpt>
      <trkpt lat="48.70153" lon="-0.55204">
        <ele>202</ele>
        <time>2012-09-08T08:54:18Z</time>
      </trkpt>
      <trkpt lat="48.70141" lon="-0.55211">
        <ele>202</ele>
        <time>2012-09-08T08:54:21Z</time>
      </trkpt>
      <trkpt lat="48.70068" lon="-0.55259">
        <ele>201</ele>
        <time>2012-09-08T08:54:37Z</time>
      </trkpt>
      <trkpt lat="48.69982" lon="-0.55311">
        <ele>200.6</ele>
        <time>2012-09-08T08:54:54Z</time>
      </trkpt>
      <trkpt lat="48.69894" lon="-0.55366">
        <ele>200.6</ele>
        <time>2012-09-08T08:55:11Z</time>
      </trkpt>
      <trkpt lat="48.69809" lon="-0.55417">
        <ele>200.6</ele>
        <time>2012-09-08T08:55:28Z</time>
      </trkpt>
      <trkpt lat="48.69723" lon="-0.55471">
        <ele>200</ele>
        <time>2012-09-08T08:55:47Z</time>
      </trkpt>
      <trkpt lat="48.69687" lon="-0.55494">
        <ele>200.6</ele>
        <time>2012-09-08T08:55:55Z</time>
      </trkpt>
      <trkpt lat="48.69663" lon="-0.5551">
        <ele>200</ele>
        <time>2012-09-08T08:56:01Z</time>
      </trkpt>
      <trkpt lat="48.69585" lon="-0.55556">
        <ele>200.6</ele>
        <time>2012-09-08T08:56:17Z</time>
      </trkpt>
      <trkpt lat="48.69522" lon="-0.55595">
        <ele>200</ele>
        <time>2012-09-08T08:56:31Z</time>
      </trkpt>
      <trkpt lat="48.69466" lon="-0.55634">
        <ele>200.6</ele>
        <time>2012-09-08T08:56:44Z</time>
      </trkpt>
      <trkpt lat="48.69397" lon="-0.55677">
        <ele>200.6</ele>
        <time>2012-09-08T08:56:58Z</time>
      </trkpt>
      <trkpt lat="48.69329" lon="-0.5572">
        <ele>200.6</ele>
        <time>2012-09-08T08:57:11Z</time>
      </trkpt>
      <trkpt lat="48.69254" lon="-0.55766">
        <ele>200.6</ele>
        <time>2012-09-08T08:57:26Z</time>
      </trkpt>
      <trkpt lat="48.69184" lon="-0.55809">
        <ele>201.6</ele>
        <time>2012-09-08T08:57:41Z</time>
      </trkpt>
      <trkpt lat="48.69164" lon="-0.55819">
        <ele>201</ele>
        <time>2012-09-08T08:57:45Z</time>
      </trkpt>
      <trkpt lat="48.69094" lon="-0.55864">
        <ele>201</ele>
        <time>2012-09-08T08:58:00Z</time>
      </trkpt>
      <trkpt lat="48.69021" lon="-0.5591">
        <ele>201</ele>
        <time>2012-09-08T08:58:15Z</time>
      </trkpt>
      <trkpt lat="48.6894" lon="-0.55961">
        <ele>201</ele>
        <time>2012-09-08T08:58:32Z</time>
      </trkpt>
      <trkpt lat="48.68926" lon="-0.55968">
        <ele>201.6</ele>
        <time>2012-09-08T08:58:35Z</time>
      </trkpt>
      <trkpt lat="48.68856" lon="-0.56015">
        <ele>201</ele>
        <time>2012-09-08T08:58:51Z</time>
      </trkpt>
      <trkpt lat="48.68808" lon="-0.5604">
        <ele>200</ele>
        <time>2012-09-08T08:59:04Z</time>
      </trkpt>
      <trkpt lat="48.68775" lon="-0.56058">
        <ele>200</ele>
        <time>2012-09-08T08:59:17Z</time>
      </trkpt>
      <trkpt lat="48.68708" lon="-0.56102">
        <ele>199.6</ele>
        <time>2012-09-08T08:59:33Z</time>
      </trkpt>
      <trkpt lat="48.68683" lon="-0.5612">
        <ele>197.2</ele>
        <time>2012-09-08T08:59:39Z</time>
      </trkpt>
      <trkpt lat="48.68666" lon="-0.56135">
        <ele>201</ele>
        <time>2012-09-08T08:59:43Z</time>
      </trkpt>
      <trkpt lat="48.686" lon="-0.5621">
        <ele>198.6</ele>
        <time>2012-09-08T08:59:58Z</time>
      </trkpt>
      <trkpt lat="48.6853" lon="-0.56306">
        <ele>198.2</ele>
        <time>2012-09-08T09:00:14Z</time>
      </trkpt>
      <trkpt lat="48.68473" lon="-0.56389">
        <ele>197.2</ele>
        <time>2012-09-08T09:00:27Z</time>
      </trkpt>
      <trkpt lat="48.68411" lon="-0.56479">
        <ele>196.8</ele>
        <time>2012-09-08T09:00:41Z</time>
      </trkpt>
      <trkpt lat="48.68349" lon="-0.56562">
        <ele>195.8</ele>
        <time>2012-09-08T09:00:55Z</time>
      </trkpt>
      <trkpt lat="48.68267" lon="-0.56674">
        <ele>194.8</ele>
        <time>2012-09-08T09:01:12Z</time>
      </trkpt>
      <trkpt lat="48.68206" lon="-0.56764">
        <ele>194.4</ele>
        <time>2012-09-08T09:01:25Z</time>
      </trkpt>
      <trkpt lat="48.68179" lon="-0.56815">
        <ele>193.8</ele>
        <time>2012-09-08T09:01:34Z</time>
      </trkpt>
      <trkpt lat="48.68173" lon="-0.56834">
        <ele>193.8</ele>
        <time>2012-09-08T09:01:37Z</time>
      </trkpt>
      <trkpt lat="48.68138" lon="-0.56905">
        <ele>192.8</ele>
        <time>2012-09-08T09:01:48Z</time>
      </trkpt>
      <trkpt lat="48.6809" lon="-0.57009">
        <ele>192</ele>
        <time>2012-09-08T09:02:03Z</time>
      </trkpt>
      <trkpt lat="48.68043" lon="-0.57104">
        <ele>191</ele>
        <time>2012-09-08T09:02:16Z</time>
      </trkpt>
      <trkpt lat="48.67999" lon="-0.57199">
        <ele>191</ele>
        <time>2012-09-08T09:02:29Z</time>
      </trkpt>
      <trkpt lat="48.67958" lon="-0.57309">
        <ele>189.6</ele>
        <time>2012-09-08T09:02:43Z</time>
      </trkpt>
      <trkpt lat="48.67933" lon="-0.57383">
        <ele>190</ele>
        <time>2012-09-08T09:02:53Z</time>
      </trkpt>
      <trkpt lat="48.67917" lon="-0.5745">
        <ele>189.6</ele>
        <time>2012-09-08T09:03:02Z</time>
      </trkpt>
      <trkpt lat="48.67894" lon="-0.57533">
        <ele>189</ele>
        <time>2012-09-08T09:03:13Z</time>
      </trkpt>
      <trkpt lat="48.67879" lon="-0.57583">
        <ele>188.6</ele>
        <time>2012-09-08T09:03:19Z</time>
      </trkpt>
      <trkpt lat="48.67842" lon="-0.57692">
        <ele>187.2</ele>
        <time>2012-09-08T09:03:33Z</time>
      </trkpt>
      <trkpt lat="48.67837" lon="-0.57707">
        <ele>187.6</ele>
        <time>2012-09-08T09:03:35Z</time>
      </trkpt>
      <trkpt lat="48.67815" lon="-0.57772">
        <ele>186.6</ele>
        <time>2012-09-08T09:03:43Z</time>
      </trkpt>
      <trkpt lat="48.67766" lon="-0.57877">
        <ele>185.6</ele>
        <time>2012-09-08T09:03:57Z</time>
      </trkpt>
      <trkpt lat="48.67712" lon="-0.57963">
        <ele>185.2</ele>
        <time>2012-09-08T09:04:11Z</time>
      </trkpt>
      <trkpt lat="48.67644" lon="-0.58043">
        <ele>185.2</ele>
        <time>2012-09-08T09:04:28Z</time>
      </trkpt>
      <trkpt lat="48.67572" lon="-0.58105">
        <ele>184.2</ele>
        <time>2012-09-08T09:04:46Z</time>
      </trkpt>
      <trkpt lat="48.67518" lon="-0.58137">
        <ele>184.2</ele>
        <time>2012-09-08T09:05:00Z</time>
      </trkpt>
      <trkpt lat="48.67491" lon="-0.58147">
        <ele>183.8</ele>
        <time>2012-09-08T09:05:09Z</time>
      </trkpt>
      <trkpt lat="48.67474" lon="-0.58157">
        <ele>184.8</ele>
        <time>2012-09-08T09:05:15Z</time>
      </trkpt>
      <trkpt lat="48.67461" lon="-0.58161">
        <ele>183.2</ele>
        <time>2012-09-08T09:05:18Z</time>
      </trkpt>
      <trkpt lat="48.6741" lon="-0.58179">
        <ele>184.2</ele>
        <time>2012-09-08T09:05:31Z</time>
      </trkpt>
      <trkpt lat="48.67406" lon="-0.58189">
        <ele>183.2</ele>
        <time>2012-09-08T09:05:36Z</time>
      </trkpt>
      <trkpt lat="48.67415" lon="-0.58188">
        <ele>182.8</ele>
        <time>2012-09-08T09:05:40Z</time>
      </trkpt>
      <trkpt lat="48.67446" lon="-0.5818">
        <ele>182.4</ele>
        <time>2012-09-08T09:05:51Z</time>
      </trkpt>
      <trkpt lat="48.67504" lon="-0.58197">
        <ele>182.8</ele>
        <time>2012-09-08T09:06:04Z</time>
      </trkpt>
      <trkpt lat="48.67553" lon="-0.58226">
        <ele>183.2</ele>
        <time>2012-09-08T09:06:18Z</time>
      </trkpt>
      <trkpt lat="48.67585" lon="-0.5827">
        <ele>183.8</ele>
        <time>2012-09-08T09:06:30Z</time>
      </trkpt>
      <trkpt lat="48.67609" lon="-0.58316">
        <ele>184.2</ele>
        <time>2012-09-08T09:06:41Z</time>
      </trkpt>
      <trkpt lat="48.67625" lon="-0.58368">
        <ele>185.2</ele>
        <time>2012-09-08T09:06:52Z</time>
      </trkpt>
      <trkpt lat="48.67639" lon="-0.5844">
        <ele>186.6</ele>
        <time>2012-09-08T09:07:05Z</time>
      </trkpt>
      <trkpt lat="48.67657" lon="-0.58521">
        <ele>187.2</ele>
        <time>2012-09-08T09:07:19Z</time>
      </trkpt>
      <trkpt lat="48.67675" lon="-0.58567">
        <ele>187.6</ele>
        <time>2012-09-08T09:07:29Z</time>
      </trkpt>
      <trkpt lat="48.677" lon="-0.58609">
        <ele>188</ele>
        <time>2012-09-08T09:07:41Z</time>
      </trkpt>
      <trkpt lat="48.67719" lon="-0.58636">
        <ele>189</ele>
        <time>2012-09-08T09:07:48Z</time>
      </trkpt>
      <trkpt lat="48.67716" lon="-0.58666">
        <ele>191</ele>
        <time>2012-09-08T09:07:55Z</time>
      </trkpt>
      <trkpt lat="48.67724" lon="-0.58681">
        <ele>192.4</ele>
        <time>2012-09-08T09:08:01Z</time>
      </trkpt>
      <trkpt lat="48.6776" lon="-0.58702">
        <ele>192.4</ele>
        <time>2012-09-08T09:08:15Z</time>
      </trkpt>
      <trkpt lat="48.67789" lon="-0.58694">
        <ele>193.8</ele>
        <time>2012-09-08T09:08:28Z</time>
      </trkpt>
      <trkpt lat="48.67802" lon="-0.58689">
        <ele>194.4</ele>
        <time>2012-09-08T09:08:34Z</time>
      </trkpt>
      <trkpt lat="48.67812" lon="-0.58684">
        <ele>194.4</ele>
        <time>2012-09-08T09:08:38Z</time>
      </trkpt>
      <trkpt lat="48.67837" lon="-0.58676">
        <ele>194.8</ele>
        <time>2012-09-08T09:08:47Z</time>
      </trkpt>
      <trkpt lat="48.67876" lon="-0.58673">
        <ele>195.8</ele>
        <time>2012-09-08T09:09:02Z</time>
      </trkpt>
      <trkpt lat="48.67914" lon="-0.58685">
        <ele>196.8</ele>
        <time>2012-09-08T09:09:13Z</time>
      </trkpt>
      <trkpt lat="48.67952" lon="-0.58707">
        <ele>196.8</ele>
        <time>2012-09-08T09:09:26Z</time>
      </trkpt>
      <trkpt lat="48.67992" lon="-0.58751">
        <ele>197.6</ele>
        <time>2012-09-08T09:09:43Z</time>
      </trkpt>
      <trkpt lat="48.68011" lon="-0.58789">
        <ele>198.2</ele>
        <time>2012-09-08T09:09:56Z</time>
      </trkpt>
      <trkpt lat="48.68025" lon="-0.58827">
        <ele>198.2</ele>
        <time>2012-09-08T09:10:06Z</time>
      </trkpt>
      <trkpt lat="48.68043" lon="-0.58862">
        <ele>199.2</ele>
        <time>2012-09-08T09:10:16Z</time>
      </trkpt>
      <trkpt lat="48.68069" lon="-0.58908">
        <ele>199.2</ele>
        <time>2012-09-08T09:10:28Z</time>
      </trkpt>
      <trkpt lat="48.68078" lon="-0.58925">
        <ele>199.6</ele>
        <time>2012-09-08T09:10:37Z</time>
      </trkpt>
      <trkpt lat="48.68082" lon="-0.58926">
        <ele>199.6</ele>
        <time>2012-09-08T09:10:59Z</time>
      </trkpt>
      <trkpt lat="48.6808" lon="-0.58925">
        <ele>199.6</ele>
        <time>2012-09-08T09:11:38Z</time>
      </trkpt>
      <trkpt lat="48.68078" lon="-0.58926">
        <ele>200</ele>
        <time>2012-09-08T09:12:08Z</time>
      </trkpt>
      <trkpt lat="48.68078" lon="-0.58927">
        <ele>200.6</ele>
        <time>2012-09-08T09:12:42Z</time>
      </trkpt>
      <trkpt lat="48.68077" lon="-0.58927">
        <ele>201</ele>
        <time>2012-09-08T09:13:12Z</time>
      </trkpt>
      <trkpt lat="48.68078" lon="-0.5893">
        <ele>200.6</ele>
        <time>2012-09-08T09:13:39Z</time>
      </trkpt>
      <trkpt lat="48.68079" lon="-0.58928">
        <ele>201.6</ele>
        <time>2012-09-08T09:14:13Z</time>
      </trkpt>
      <trkpt lat="48.68078" lon="-0.58927">
        <ele>202.4</ele>
        <time>2012-09-08T09:14:25Z</time>
      </trkpt>
      <trkpt lat="48.6808" lon="-0.58929">
        <ele>201.6</ele>
        <time>2012-09-08T09:14:37Z</time>
      </trkpt>
      <trkpt lat="48.6808" lon="-0.58932">
        <ele>201</ele>
        <time>2012-09-08T09:14:38Z</time>
      </trkpt>
      <trkpt lat="48.6808" lon="-0.58934">
        <ele>201</ele>
        <time>2012-09-08T09:14:39Z</time>
      </trkpt>
      <trkpt lat="48.68079" lon="-0.58936">
        <ele>201.6</ele>
        <time>2012-09-08T09:14:40Z</time>
      </trkpt>
      <trkpt lat="48.68078" lon="-0.58938">
        <ele>201.6</ele>
        <time>2012-09-08T09:14:41Z</time>
      </trkpt>
      <trkpt lat="48.68077" lon="-0.5894">
        <ele>202</ele>
        <time>2012-09-08T09:14:42Z</time>
      </trkpt>
      <trkpt lat="48.68076" lon="-0.58942">
        <ele>202</ele>
        <time>2012-09-08T09:14:43Z</time>
      </trkpt>
      <trkpt lat="48.68062" lon="-0.58968">
        <ele>204.4</ele>
        <time>2012-09-08T09:14:59Z</time>
      </trkpt>
      <trkpt lat="48.68049" lon="-0.58985">
        <ele>206.8</ele>
        <time>2012-09-08T09:15:13Z</time>
      </trkpt>
      <trkpt lat="48.68036" lon="-0.59">
        <ele>208.2</ele>
        <time>2012-09-08T09:15:25Z</time>
      </trkpt>
      <trkpt lat="48.68015" lon="-0.5902">
        <ele>211.2</ele>
        <time>2012-09-08T09:15:39Z</time>
      </trkpt>
      <trkpt lat="48.68005" lon="-0.59028">
        <ele>211.6</ele>
        <time>2012-09-08T09:15:46Z</time>
      </trkpt>
      <trkpt lat="48.68001" lon="-0.59042">
        <ele>211.6</ele>
        <time>2012-09-08T09:15:57Z</time>
      </trkpt>
      <trkpt lat="48.68001" lon="-0.59044">
        <ele>211.6</ele>
        <time>2012-09-08T09:15:58Z</time>
      </trkpt>
      <trkpt lat="48.68002" lon="-0.59046">
        <ele>211.6</ele>
        <time>2012-09-08T09:15:59Z</time>
      </trkpt>
      <trkpt lat="48.68002" lon="-0.59048">
        <ele>211.6</ele>
        <time>2012-09-08T09:16:00Z</time>
      </trkpt>
      <trkpt lat="48.68003" lon="-0.5905">
        <ele>212.2</ele>
        <time>2012-09-08T09:16:01Z</time>
      </trkpt>
      <trkpt lat="48.68005" lon="-0.59059">
        <ele>212.6</ele>
        <time>2012-09-08T09:16:05Z</time>
      </trkpt>
      <trkpt lat="48.68007" lon="-0.5907">
        <ele>212.2</ele>
        <time>2012-09-08T09:16:09Z</time>
      </trkpt>
      <trkpt lat="48.68009" lon="-0.59079">
        <ele>212.2</ele>
        <time>2012-09-08T09:16:13Z</time>
      </trkpt>
      <trkpt lat="48.6801" lon="-0.59082">
        <ele>213</ele>
        <time>2012-09-08T09:16:14Z</time>
      </trkpt>
      <trkpt lat="48.68018" lon="-0.59126">
        <ele>214.6</ele>
        <time>2012-09-08T09:16:28Z</time>
      </trkpt>
      <trkpt lat="48.68021" lon="-0.59136">
        <ele>214.6</ele>
        <time>2012-09-08T09:16:32Z</time>
      </trkpt>
      <trkpt lat="48.68021" lon="-0.59139">
        <ele>215</ele>
        <time>2012-09-08T09:16:33Z</time>
      </trkpt>
      <trkpt lat="48.68021" lon="-0.59141">
        <ele>215.4</ele>
        <time>2012-09-08T09:16:34Z</time>
      </trkpt>
      <trkpt lat="48.68021" lon="-0.59144">
        <ele>215</ele>
        <time>2012-09-08T09:16:35Z</time>
      </trkpt>
      <trkpt lat="48.68022" lon="-0.59147">
        <ele>215</ele>
        <time>2012-09-08T09:16:36Z</time>
      </trkpt>
      <trkpt lat="48.68022" lon="-0.5915">
        <ele>215.4</ele>
        <time>2012-09-08T09:16:37Z</time>
      </trkpt>
      <trkpt lat="48.68022" lon="-0.59153">
        <ele>215.4</ele>
        <time>2012-09-08T09:16:38Z</time>
      </trkpt>
      <trkpt lat="48.68022" lon="-0.59156">
        <ele>215.4</ele>
        <time>2012-09-08T09:16:39Z</time>
      </trkpt>
      <trkpt lat="48.68023" lon="-0.59159">
        <ele>216</ele>
        <time>2012-09-08T09:16:40Z</time>
      </trkpt>
      <trkpt lat="48.68022" lon="-0.59179">
        <ele>216</ele>
        <time>2012-09-08T09:16:52Z</time>
      </trkpt>
      <trkpt lat="48.68024" lon="-0.5922">
        <ele>217</ele>
        <time>2012-09-08T09:17:06Z</time>
      </trkpt>
      <trkpt lat="48.68016" lon="-0.59282">
        <ele>217</ele>
        <time>2012-09-08T09:17:23Z</time>
      </trkpt>
      <trkpt lat="48.68016" lon="-0.59319">
        <ele>218.4</ele>
        <time>2012-09-08T09:17:33Z</time>
      </trkpt>
      <trkpt lat="48.68013" lon="-0.5937">
        <ele>217.4</ele>
        <time>2012-09-08T09:17:47Z</time>
      </trkpt>
      <trkpt lat="48.68004" lon="-0.59427">
        <ele>218.4</ele>
        <time>2012-09-08T09:18:02Z</time>
      </trkpt>
      <trkpt lat="48.68005" lon="-0.5943">
        <ele>218.8</ele>
        <time>2012-09-08T09:18:03Z</time>
      </trkpt>
      <trkpt lat="48.68007" lon="-0.59432">
        <ele>218.8</ele>
        <time>2012-09-08T09:18:04Z</time>
      </trkpt>
      <trkpt lat="48.68009" lon="-0.59433">
        <ele>218.8</ele>
        <time>2012-09-08T09:18:05Z</time>
      </trkpt>
      <trkpt lat="48.68012" lon="-0.59433">
        <ele>218.8</ele>
        <time>2012-09-08T09:18:06Z</time>
      </trkpt>
      <trkpt lat="48.68047" lon="-0.59443">
        <ele>220.8</ele>
        <time>2012-09-08T09:18:21Z</time>
      </trkpt>
      <trkpt lat="48.68058" lon="-0.59457">
        <ele>220.8</ele>
        <time>2012-09-08T09:18:32Z</time>
      </trkpt>
      <trkpt lat="48.68054" lon="-0.59455">
        <ele>221.2</ele>
        <time>2012-09-08T09:18:44Z</time>
      </trkpt>
      <trkpt lat="48.68053" lon="-0.59454">
        <ele>220.8</ele>
        <time>2012-09-08T09:18:46Z</time>
      </trkpt>
      <trkpt lat="48.68037" lon="-0.59436">
        <ele>220.2</ele>
        <time>2012-09-08T09:18:58Z</time>
      </trkpt>
      <trkpt lat="48.68035" lon="-0.59436">
        <ele>220.2</ele>
        <time>2012-09-08T09:18:59Z</time>
      </trkpt>
      <trkpt lat="48.67998" lon="-0.59438">
        <ele>219.4</ele>
        <time>2012-09-08T09:19:12Z</time>
      </trkpt>
      <trkpt lat="48.67996" lon="-0.59442">
        <ele>218.8</ele>
        <time>2012-09-08T09:19:13Z</time>
      </trkpt>
      <trkpt lat="48.67995" lon="-0.59446">
        <ele>218.8</ele>
        <time>2012-09-08T09:19:14Z</time>
      </trkpt>
      <trkpt lat="48.67993" lon="-0.5945">
        <ele>219.4</ele>
        <time>2012-09-08T09:19:15Z</time>
      </trkpt>
      <trkpt lat="48.67992" lon="-0.59454">
        <ele>218.8</ele>
        <time>2012-09-08T09:19:16Z</time>
      </trkpt>
      <trkpt lat="48.6799" lon="-0.59458">
        <ele>218.4</ele>
        <time>2012-09-08T09:19:17Z</time>
      </trkpt>
      <trkpt lat="48.67962" lon="-0.59533">
        <ele>215.4</ele>
        <time>2012-09-08T09:19:29Z</time>
      </trkpt>
      <trkpt lat="48.67959" lon="-0.59542">
        <ele>215</ele>
        <time>2012-09-08T09:19:30Z</time>
      </trkpt>
      <trkpt lat="48.67951" lon="-0.59575">
        <ele>213</ele>
        <time>2012-09-08T09:19:33Z</time>
      </trkpt>
      <trkpt lat="48.67938" lon="-0.59619">
        <ele>212.2</ele>
        <time>2012-09-08T09:19:37Z</time>
      </trkpt>
      <trkpt lat="48.67922" lon="-0.5965">
        <ele>213.6</ele>
        <time>2012-09-08T09:19:41Z</time>
      </trkpt>
      <trkpt lat="48.67917" lon="-0.59655">
        <ele>213</ele>
        <time>2012-09-08T09:19:42Z</time>
      </trkpt>
      <trkpt lat="48.67913" lon="-0.59657">
        <ele>214</ele>
        <time>2012-09-08T09:19:43Z</time>
      </trkpt>
      <trkpt lat="48.67909" lon="-0.59658">
        <ele>214</ele>
        <time>2012-09-08T09:19:44Z</time>
      </trkpt>
      <trkpt lat="48.67906" lon="-0.59658">
        <ele>214.6</ele>
        <time>2012-09-08T09:19:45Z</time>
      </trkpt>
      <trkpt lat="48.67904" lon="-0.59658">
        <ele>215</ele>
        <time>2012-09-08T09:19:46Z</time>
      </trkpt>
      <trkpt lat="48.67902" lon="-0.59659">
        <ele>215.4</ele>
        <time>2012-09-08T09:19:47Z</time>
      </trkpt>
      <trkpt lat="48.67884" lon="-0.59671">
        <ele>218.4</ele>
        <time>2012-09-08T09:20:00Z</time>
      </trkpt>
      <trkpt lat="48.67884" lon="-0.59674">
        <ele>217.8</ele>
        <time>2012-09-08T09:20:01Z</time>
      </trkpt>
      <trkpt lat="48.67889" lon="-0.59717">
        <ele>218.8</ele>
        <time>2012-09-08T09:20:15Z</time>
      </trkpt>
      <trkpt lat="48.67889" lon="-0.59779">
        <ele>220.8</ele>
        <time>2012-09-08T09:20:34Z</time>
      </trkpt>
      <trkpt lat="48.67888" lon="-0.59826">
        <ele>223.2</ele>
        <time>2012-09-08T09:20:49Z</time>
      </trkpt>
      <trkpt lat="48.6789" lon="-0.59877">
        <ele>225</ele>
        <time>2012-09-08T09:21:07Z</time>
      </trkpt>
      <trkpt lat="48.67899" lon="-0.59917">
        <ele>228.4</ele>
        <time>2012-09-08T09:21:21Z</time>
      </trkpt>
      <trkpt lat="48.67913" lon="-0.59959">
        <ele>231.4</ele>
        <time>2012-09-08T09:21:37Z</time>
      </trkpt>
      <trkpt lat="48.67926" lon="-0.60004">
        <ele>234.2</ele>
        <time>2012-09-08T09:21:54Z</time>
      </trkpt>
      <trkpt lat="48.67931" lon="-0.60018">
        <ele>235.6</ele>
        <time>2012-09-08T09:22:00Z</time>
      </trkpt>
      <trkpt lat="48.67941" lon="-0.60056">
        <ele>237.6</ele>
        <time>2012-09-08T09:22:16Z</time>
      </trkpt>
      <trkpt lat="48.67954" lon="-0.60096">
        <ele>240.4</ele>
        <time>2012-09-08T09:22:32Z</time>
      </trkpt>
      <trkpt lat="48.67976" lon="-0.60098">
        <ele>241.4</ele>
        <time>2012-09-08T09:22:46Z</time>
      </trkpt>
      <trkpt lat="48.68005" lon="-0.60091">
        <ele>242</ele>
        <time>2012-09-08T09:22:59Z</time>
      </trkpt>
      <trkpt lat="48.68035" lon="-0.60078">
        <ele>242.4</ele>
        <time>2012-09-08T09:23:12Z</time>
      </trkpt>
      <trkpt lat="48.68063" lon="-0.60057">
        <ele>242.4</ele>
        <time>2012-09-08T09:23:25Z</time>
      </trkpt>
      <trkpt lat="48.68094" lon="-0.60049">
        <ele>243.4</ele>
        <time>2012-09-08T09:23:38Z</time>
      </trkpt>
      <trkpt lat="48.68118" lon="-0.60028">
        <ele>243.8</ele>
        <time>2012-09-08T09:23:51Z</time>
      </trkpt>
      <trkpt lat="48.68153" lon="-0.60011">
        <ele>243.8</ele>
        <time>2012-09-08T09:24:04Z</time>
      </trkpt>
      <trkpt lat="48.68186" lon="-0.59995">
        <ele>244.8</ele>
        <time>2012-09-08T09:24:19Z</time>
      </trkpt>
      <trkpt lat="48.68219" lon="-0.59982">
        <ele>245.2</ele>
        <time>2012-09-08T09:24:32Z</time>
      </trkpt>
      <trkpt lat="48.6825" lon="-0.5996">
        <ele>245.2</ele>
        <time>2012-09-08T09:24:47Z</time>
      </trkpt>
      <trkpt lat="48.68273" lon="-0.59945">
        <ele>246.2</ele>
        <time>2012-09-08T09:24:58Z</time>
      </trkpt>
      <trkpt lat="48.68274" lon="-0.59945">
        <ele>246.8</ele>
        <time>2012-09-08T09:24:59Z</time>
      </trkpt>
      <trkpt lat="48.68277" lon="-0.59949">
        <ele>247.2</ele>
        <time>2012-09-08T09:25:01Z</time>
      </trkpt>
      <trkpt lat="48.68279" lon="-0.59952">
        <ele>247.2</ele>
        <time>2012-09-08T09:25:02Z</time>
      </trkpt>
      <trkpt lat="48.68299" lon="-0.59981">
        <ele>247.2</ele>
        <time>2012-09-08T09:25:14Z</time>
      </trkpt>
      <trkpt lat="48.68319" lon="-0.60013">
        <ele>246.8</ele>
        <time>2012-09-08T09:25:28Z</time>
      </trkpt>
      <trkpt lat="48.68331" lon="-0.60032">
        <ele>245.2</ele>
        <time>2012-09-08T09:25:33Z</time>
      </trkpt>
      <trkpt lat="48.68345" lon="-0.60064">
        <ele>240.4</ele>
        <time>2012-09-08T09:25:38Z</time>
      </trkpt>
      <trkpt lat="48.68345" lon="-0.60072">
        <ele>240</ele>
        <time>2012-09-08T09:25:39Z</time>
      </trkpt>
      <trkpt lat="48.68345" lon="-0.60097">
        <ele>238.6</ele>
        <time>2012-09-08T09:25:42Z</time>
      </trkpt>
      <trkpt lat="48.68338" lon="-0.60207">
        <ele>235.6</ele>
        <time>2012-09-08T09:25:53Z</time>
      </trkpt>
      <trkpt lat="48.68333" lon="-0.60238">
        <ele>234.8</ele>
        <time>2012-09-08T09:25:58Z</time>
      </trkpt>
      <trkpt lat="48.68336" lon="-0.60249">
        <ele>233.2</ele>
        <time>2012-09-08T09:26:02Z</time>
      </trkpt>
      <trkpt lat="48.68372" lon="-0.60251">
        <ele>231.4</ele>
        <time>2012-09-08T09:26:14Z</time>
      </trkpt>
      <trkpt lat="48.68387" lon="-0.60272">
        <ele>232.8</ele>
        <time>2012-09-08T09:26:25Z</time>
      </trkpt>
      <trkpt lat="48.6839" lon="-0.60285">
        <ele>232.8</ele>
        <time>2012-09-08T09:26:29Z</time>
      </trkpt>
      <trkpt lat="48.68402" lon="-0.60311">
        <ele>233.2</ele>
        <time>2012-09-08T09:26:38Z</time>
      </trkpt>
      <trkpt lat="48.68405" lon="-0.60327">
        <ele>233.2</ele>
        <time>2012-09-08T09:26:42Z</time>
      </trkpt>
      <trkpt lat="48.68418" lon="-0.60377">
        <ele>233.2</ele>
        <time>2012-09-08T09:26:55Z</time>
      </trkpt>
      <trkpt lat="48.68419" lon="-0.60381">
        <ele>232.8</ele>
        <time>2012-09-08T09:26:56Z</time>
      </trkpt>
      <trkpt lat="48.6843" lon="-0.60429">
        <ele>231.8</ele>
        <time>2012-09-08T09:27:08Z</time>
      </trkpt>
      <trkpt lat="48.6844" lon="-0.60462">
        <ele>232.4</ele>
        <time>2012-09-08T09:27:19Z</time>
      </trkpt>
      <trkpt lat="48.68462" lon="-0.60493">
        <ele>232.8</ele>
        <time>2012-09-08T09:27:32Z</time>
      </trkpt>
      <trkpt lat="48.68468" lon="-0.60504">
        <ele>233.2</ele>
        <time>2012-09-08T09:27:36Z</time>
      </trkpt>
      <trkpt lat="48.68491" lon="-0.60527">
        <ele>234.8</ele>
        <time>2012-09-08T09:27:47Z</time>
      </trkpt>
      <trkpt lat="48.68494" lon="-0.60528">
        <ele>235.2</ele>
        <time>2012-09-08T09:27:50Z</time>
      </trkpt>
      <trkpt lat="48.68498" lon="-0.60529">
        <ele>235.2</ele>
        <time>2012-09-08T09:27:52Z</time>
      </trkpt>
      <trkpt lat="48.68523" lon="-0.60545">
        <ele>237.2</ele>
        <time>2012-09-08T09:28:05Z</time>
      </trkpt>
      <trkpt lat="48.68535" lon="-0.60562">
        <ele>238.6</ele>
        <time>2012-09-08T09:28:16Z</time>
      </trkpt>
      <trkpt lat="48.6855" lon="-0.60574">
        <ele>241</ele>
        <time>2012-09-08T09:28:28Z</time>
      </trkpt>
      <trkpt lat="48.68566" lon="-0.60586">
        <ele>242</ele>
        <time>2012-09-08T09:28:34Z</time>
      </trkpt>
      <trkpt lat="48.68578" lon="-0.60601">
        <ele>242.8</ele>
        <time>2012-09-08T09:28:40Z</time>
      </trkpt>
      <trkpt lat="48.68598" lon="-0.60628">
        <ele>245.2</ele>
        <time>2012-09-08T09:28:54Z</time>
      </trkpt>
      <trkpt lat="48.68603" lon="-0.60641">
        <ele>245.2</ele>
        <time>2012-09-08T09:29:01Z</time>
      </trkpt>
      <trkpt lat="48.68606" lon="-0.60646">
        <ele>245.8</ele>
        <time>2012-09-08T09:29:04Z</time>
      </trkpt>
      <trkpt lat="48.68611" lon="-0.60664">
        <ele>247.6</ele>
        <time>2012-09-08T09:29:11Z</time>
      </trkpt>
      <trkpt lat="48.68618" lon="-0.607">
        <ele>248.6</ele>
        <time>2012-09-08T09:29:25Z</time>
      </trkpt>
      <trkpt lat="48.68622" lon="-0.60724">
        <ele>251</ele>
        <time>2012-09-08T09:29:37Z</time>
      </trkpt>
      <trkpt lat="48.68628" lon="-0.60752">
        <ele>253.4</ele>
        <time>2012-09-08T09:29:51Z</time>
      </trkpt>
      <trkpt lat="48.6863" lon="-0.60769">
        <ele>254.4</ele>
        <time>2012-09-08T09:29:59Z</time>
      </trkpt>
      <trkpt lat="48.68637" lon="-0.60793">
        <ele>256.8</ele>
        <time>2012-09-08T09:30:13Z</time>
      </trkpt>
      <trkpt lat="48.68639" lon="-0.608">
        <ele>257.2</ele>
        <time>2012-09-08T09:30:39Z</time>
      </trkpt>
      <trkpt lat="48.68638" lon="-0.60802">
        <ele>256.8</ele>
        <time>2012-09-08T09:30:58Z</time>
      </trkpt>
      <trkpt lat="48.68635" lon="-0.60797">
        <ele>256.8</ele>
        <time>2012-09-08T09:31:34Z</time>
      </trkpt>
      <trkpt lat="48.68635" lon="-0.60801">
        <ele>257.2</ele>
        <time>2012-09-08T09:31:55Z</time>
      </trkpt>
      <trkpt lat="48.68637" lon="-0.60832">
        <ele>260.2</ele>
        <time>2012-09-08T09:32:12Z</time>
      </trkpt>
      <trkpt lat="48.68639" lon="-0.6084">
        <ele>260.6</ele>
        <time>2012-09-08T09:32:17Z</time>
      </trkpt>
      <trkpt lat="48.6864" lon="-0.60844">
        <ele>260.6</ele>
        <time>2012-09-08T09:32:19Z</time>
      </trkpt>
      <trkpt lat="48.68644" lon="-0.60873">
        <ele>263.6</ele>
        <time>2012-09-08T09:32:33Z</time>
      </trkpt>
      <trkpt lat="48.68649" lon="-0.60899">
        <ele>265.4</ele>
        <time>2012-09-08T09:32:47Z</time>
      </trkpt>
      <trkpt lat="48.6865" lon="-0.60906">
        <ele>266</ele>
        <time>2012-09-08T09:32:51Z</time>
      </trkpt>
      <trkpt lat="48.68652" lon="-0.60934">
        <ele>267.8</ele>
        <time>2012-09-08T09:33:05Z</time>
      </trkpt>
      <trkpt lat="48.68651" lon="-0.60958">
        <ele>269.8</ele>
        <time>2012-09-08T09:33:18Z</time>
      </trkpt>
      <trkpt lat="48.68658" lon="-0.6098">
        <ele>266.4</ele>
        <time>2012-09-08T09:33:28Z</time>
      </trkpt>
      <trkpt lat="48.68658" lon="-0.60982">
        <ele>272.2</ele>
        <time>2012-09-08T09:33:29Z</time>
      </trkpt>
      <trkpt lat="48.6867" lon="-0.61012">
        <ele>271.2</ele>
        <time>2012-09-08T09:33:43Z</time>
      </trkpt>
      <trkpt lat="48.68674" lon="-0.61021">
        <ele>271.2</ele>
        <time>2012-09-08T09:33:47Z</time>
      </trkpt>
      <trkpt lat="48.68675" lon="-0.61024">
        <ele>271.8</ele>
        <time>2012-09-08T09:33:49Z</time>
      </trkpt>
      <trkpt lat="48.6868" lon="-0.61034">
        <ele>272.2</ele>
        <time>2012-09-08T09:33:54Z</time>
      </trkpt>
      <trkpt lat="48.68698" lon="-0.6107">
        <ele>273.6</ele>
        <time>2012-09-08T09:34:11Z</time>
      </trkpt>
      <trkpt lat="48.68708" lon="-0.611">
        <ele>275</ele>
        <time>2012-09-08T09:34:25Z</time>
      </trkpt>
      <trkpt lat="48.68713" lon="-0.61108">
        <ele>275.6</ele>
        <time>2012-09-08T09:34:33Z</time>
      </trkpt>
      <trkpt lat="48.68716" lon="-0.61128">
        <ele>275.6</ele>
        <time>2012-09-08T09:34:41Z</time>
      </trkpt>
      <trkpt lat="48.68717" lon="-0.61134">
        <ele>275.6</ele>
        <time>2012-09-08T09:34:43Z</time>
      </trkpt>
      <trkpt lat="48.68724" lon="-0.61169">
        <ele>276</ele>
        <time>2012-09-08T09:34:56Z</time>
      </trkpt>
      <trkpt lat="48.68738" lon="-0.61207">
        <ele>276</ele>
        <time>2012-09-08T09:35:07Z</time>
      </trkpt>
      <trkpt lat="48.68755" lon="-0.61247">
        <ele>277</ele>
        <time>2012-09-08T09:35:18Z</time>
      </trkpt>
      <trkpt lat="48.68779" lon="-0.61288">
        <ele>278.4</ele>
        <time>2012-09-08T09:35:31Z</time>
      </trkpt>
      <trkpt lat="48.68801" lon="-0.61331">
        <ele>279</ele>
        <time>2012-09-08T09:35:44Z</time>
      </trkpt>
      <trkpt lat="48.68823" lon="-0.61387">
        <ele>279.8</ele>
        <time>2012-09-08T09:35:56Z</time>
      </trkpt>
      <trkpt lat="48.68842" lon="-0.61434">
        <ele>280.4</ele>
        <time>2012-09-08T09:36:07Z</time>
      </trkpt>
      <trkpt lat="48.68859" lon="-0.61481">
        <ele>281.4</ele>
        <time>2012-09-08T09:36:18Z</time>
      </trkpt>
      <trkpt lat="48.68878" lon="-0.61533">
        <ele>280.8</ele>
        <time>2012-09-08T09:36:30Z</time>
      </trkpt>
      <trkpt lat="48.6889" lon="-0.61577">
        <ele>281.4</ele>
        <time>2012-09-08T09:36:41Z</time>
      </trkpt>
      <trkpt lat="48.689" lon="-0.61612">
        <ele>279.8</ele>
        <time>2012-09-08T09:36:50Z</time>
      </trkpt>
      <trkpt lat="48.689" lon="-0.61616">
        <ele>279.8</ele>
        <time>2012-09-08T09:36:51Z</time>
      </trkpt>
      <trkpt lat="48.68901" lon="-0.61619">
        <ele>279.8</ele>
        <time>2012-09-08T09:36:52Z</time>
      </trkpt>
      <trkpt lat="48.68906" lon="-0.61634">
        <ele>279.8</ele>
        <time>2012-09-08T09:36:56Z</time>
      </trkpt>
      <trkpt lat="48.68924" lon="-0.61716">
        <ele>277</ele>
        <time>2012-09-08T09:37:07Z</time>
      </trkpt>
      <trkpt lat="48.68932" lon="-0.61739">
        <ele>276.6</ele>
        <time>2012-09-08T09:37:10Z</time>
      </trkpt>
      <trkpt lat="48.68967" lon="-0.61823">
        <ele>275</ele>
        <time>2012-09-08T09:37:21Z</time>
      </trkpt>
      <trkpt lat="48.6897" lon="-0.61829">
        <ele>275</ele>
        <time>2012-09-08T09:37:22Z</time>
      </trkpt>
      <trkpt lat="48.68972" lon="-0.61834">
        <ele>275</ele>
        <time>2012-09-08T09:37:23Z</time>
      </trkpt>
      <trkpt lat="48.68984" lon="-0.61875">
        <ele>272.2</ele>
        <time>2012-09-08T09:37:30Z</time>
      </trkpt>
      <trkpt lat="48.68985" lon="-0.61882">
        <ele>272.6</ele>
        <time>2012-09-08T09:37:31Z</time>
      </trkpt>
      <trkpt lat="48.68995" lon="-0.61925">
        <ele>269.4</ele>
        <time>2012-09-08T09:37:38Z</time>
      </trkpt>
      <trkpt lat="48.68999" lon="-0.6193">
        <ele>268.8</ele>
        <time>2012-09-08T09:37:39Z</time>
      </trkpt>
      <trkpt lat="48.69003" lon="-0.61935">
        <ele>268.4</ele>
        <time>2012-09-08T09:37:40Z</time>
      </trkpt>
      <trkpt lat="48.69007" lon="-0.6194">
        <ele>267.8</ele>
        <time>2012-09-08T09:37:41Z</time>
      </trkpt>
      <trkpt lat="48.69012" lon="-0.61943">
        <ele>267.4</ele>
        <time>2012-09-08T09:37:42Z</time>
      </trkpt>
      <trkpt lat="48.69018" lon="-0.61947">
        <ele>266.4</ele>
        <time>2012-09-08T09:37:43Z</time>
      </trkpt>
      <trkpt lat="48.69023" lon="-0.6195">
        <ele>266</ele>
        <time>2012-09-08T09:37:44Z</time>
      </trkpt>
      <trkpt lat="48.69028" lon="-0.61951">
        <ele>265.4</ele>
        <time>2012-09-08T09:37:45Z</time>
      </trkpt>
      <trkpt lat="48.69032" lon="-0.61951">
        <ele>265.4</ele>
        <time>2012-09-08T09:37:46Z</time>
      </trkpt>
      <trkpt lat="48.69036" lon="-0.61949">
        <ele>266</ele>
        <time>2012-09-08T09:37:47Z</time>
      </trkpt>
      <trkpt lat="48.69039" lon="-0.61947">
        <ele>267</ele>
        <time>2012-09-08T09:37:48Z</time>
      </trkpt>
      <trkpt lat="48.69042" lon="-0.61944">
        <ele>267</ele>
        <time>2012-09-08T09:37:49Z</time>
      </trkpt>
      <trkpt lat="48.69099" lon="-0.61904">
        <ele>269.4</ele>
        <time>2012-09-08T09:38:10Z</time>
      </trkpt>
      <trkpt lat="48.69136" lon="-0.61876">
        <ele>270.8</ele>
        <time>2012-09-08T09:38:26Z</time>
      </trkpt>
      <trkpt lat="48.69177" lon="-0.61849">
        <ele>272.2</ele>
        <time>2012-09-08T09:38:42Z</time>
      </trkpt>
      <trkpt lat="48.69212" lon="-0.61822">
        <ele>273.2</ele>
        <time>2012-09-08T09:38:57Z</time>
      </trkpt>
      <trkpt lat="48.6924" lon="-0.61803">
        <ele>274.2</ele>
        <time>2012-09-08T09:39:10Z</time>
      </trkpt>
      <trkpt lat="48.69245" lon="-0.61798">
        <ele>274.2</ele>
        <time>2012-09-08T09:39:13Z</time>
      </trkpt>
      <trkpt lat="48.69245" lon="-0.61795">
        <ele>274.6</ele>
        <time>2012-09-08T09:39:14Z</time>
      </trkpt>
      <trkpt lat="48.69244" lon="-0.61793">
        <ele>274.6</ele>
        <time>2012-09-08T09:39:15Z</time>
      </trkpt>
      <trkpt lat="48.69232" lon="-0.61751">
        <ele>275.6</ele>
        <time>2012-09-08T09:39:29Z</time>
      </trkpt>
      <trkpt lat="48.69217" lon="-0.61715">
        <ele>277</ele>
        <time>2012-09-08T09:39:40Z</time>
      </trkpt>
      <trkpt lat="48.69207" lon="-0.6167">
        <ele>277.4</ele>
        <time>2012-09-08T09:39:54Z</time>
      </trkpt>
      <trkpt lat="48.69192" lon="-0.61624">
        <ele>277.4</ele>
        <time>2012-09-08T09:40:06Z</time>
      </trkpt>
      <trkpt lat="48.69179" lon="-0.61585">
        <ele>277.4</ele>
        <time>2012-09-08T09:40:16Z</time>
      </trkpt>
      <trkpt lat="48.69164" lon="-0.61548">
        <ele>276.6</ele>
        <time>2012-09-08T09:40:24Z</time>
      </trkpt>
      <trkpt lat="48.69162" lon="-0.61542">
        <ele>276</ele>
        <time>2012-09-08T09:40:25Z</time>
      </trkpt>
      <trkpt lat="48.6916" lon="-0.61537">
        <ele>276.6</ele>
        <time>2012-09-08T09:40:26Z</time>
      </trkpt>
      <trkpt lat="48.69159" lon="-0.61532">
        <ele>275.6</ele>
        <time>2012-09-08T09:40:27Z</time>
      </trkpt>
      <trkpt lat="48.69157" lon="-0.61526">
        <ele>275.6</ele>
        <time>2012-09-08T09:40:28Z</time>
      </trkpt>
      <trkpt lat="48.69156" lon="-0.61521">
        <ele>276</ele>
        <time>2012-09-08T09:40:29Z</time>
      </trkpt>
      <trkpt lat="48.69145" lon="-0.61489">
        <ele>275</ele>
        <time>2012-09-08T09:40:35Z</time>
      </trkpt>
      <trkpt lat="48.69143" lon="-0.61483">
        <ele>274.6</ele>
        <time>2012-09-08T09:40:36Z</time>
      </trkpt>
      <trkpt lat="48.69135" lon="-0.61463">
        <ele>273.6</ele>
        <time>2012-09-08T09:40:41Z</time>
      </trkpt>
      <trkpt lat="48.69129" lon="-0.61449">
        <ele>274.6</ele>
        <time>2012-09-08T09:40:47Z</time>
      </trkpt>
      <trkpt lat="48.69128" lon="-0.61446">
        <ele>274.2</ele>
        <time>2012-09-08T09:40:48Z</time>
      </trkpt>
      <trkpt lat="48.69127" lon="-0.61442">
        <ele>273.6</ele>
        <time>2012-09-08T09:40:49Z</time>
      </trkpt>
      <trkpt lat="48.69126" lon="-0.61439">
        <ele>273.6</ele>
        <time>2012-09-08T09:40:50Z</time>
      </trkpt>
      <trkpt lat="48.69125" lon="-0.61437">
        <ele>273.6</ele>
        <time>2012-09-08T09:40:51Z</time>
      </trkpt>
      <trkpt lat="48.69124" lon="-0.61435">
        <ele>273.6</ele>
        <time>2012-09-08T09:40:52Z</time>
      </trkpt>
      <trkpt lat="48.69124" lon="-0.61433">
        <ele>273.6</ele>
        <time>2012-09-08T09:40:53Z</time>
      </trkpt>
      <trkpt lat="48.69119" lon="-0.61425">
        <ele>273.2</ele>
        <time>2012-09-08T09:40:58Z</time>
      </trkpt>
      <trkpt lat="48.69113" lon="-0.61422">
        <ele>273.6</ele>
        <time>2012-09-08T09:41:02Z</time>
      </trkpt>
      <trkpt lat="48.69111" lon="-0.6142">
        <ele>273.2</ele>
        <time>2012-09-08T09:41:03Z</time>
      </trkpt>
      <trkpt lat="48.69091" lon="-0.61363">
        <ele>271.2</ele>
        <time>2012-09-08T09:41:13Z</time>
      </trkpt>
      <trkpt lat="48.69078" lon="-0.61326">
        <ele>270.2</ele>
        <time>2012-09-08T09:41:18Z</time>
      </trkpt>
      <trkpt lat="48.6907" lon="-0.61298">
        <ele>268.8</ele>
        <time>2012-09-08T09:41:22Z</time>
      </trkpt>
      <trkpt lat="48.69068" lon="-0.61291">
        <ele>268.8</ele>
        <time>2012-09-08T09:41:23Z</time>
      </trkpt>
      <trkpt lat="48.69064" lon="-0.61278">
        <ele>268.4</ele>
        <time>2012-09-08T09:41:25Z</time>
      </trkpt>
      <trkpt lat="48.69062" lon="-0.61272">
        <ele>268.4</ele>
        <time>2012-09-08T09:41:26Z</time>
      </trkpt>
      <trkpt lat="48.69035" lon="-0.61204">
        <ele>267.8</ele>
        <time>2012-09-08T09:41:38Z</time>
      </trkpt>
      <trkpt lat="48.69028" lon="-0.61184">
        <ele>267</ele>
        <time>2012-09-08T09:41:41Z</time>
      </trkpt>
      <trkpt lat="48.69026" lon="-0.61176">
        <ele>266.4</ele>
        <time>2012-09-08T09:41:42Z</time>
      </trkpt>
      <trkpt lat="48.69024" lon="-0.61168">
        <ele>267</ele>
        <time>2012-09-08T09:41:43Z</time>
      </trkpt>
      <trkpt lat="48.69022" lon="-0.61161">
        <ele>265.4</ele>
        <time>2012-09-08T09:41:44Z</time>
      </trkpt>
      <trkpt lat="48.6902" lon="-0.61154">
        <ele>266</ele>
        <time>2012-09-08T09:41:45Z</time>
      </trkpt>
      <trkpt lat="48.69018" lon="-0.61147">
        <ele>266</ele>
        <time>2012-09-08T09:41:46Z</time>
      </trkpt>
      <trkpt lat="48.6899" lon="-0.61063">
        <ele>263.6</ele>
        <time>2012-09-08T09:41:57Z</time>
      </trkpt>
      <trkpt lat="48.68988" lon="-0.61056">
        <ele>263</ele>
        <time>2012-09-08T09:41:58Z</time>
      </trkpt>
      <trkpt lat="48.68981" lon="-0.61031">
        <ele>263</ele>
        <time>2012-09-08T09:42:02Z</time>
      </trkpt>
      <trkpt lat="48.68979" lon="-0.61024">
        <ele>263.6</ele>
        <time>2012-09-08T09:42:03Z</time>
      </trkpt>
      <trkpt lat="48.68977" lon="-0.61017">
        <ele>263.6</ele>
        <time>2012-09-08T09:42:04Z</time>
      </trkpt>
      <trkpt lat="48.68975" lon="-0.61011">
        <ele>263</ele>
        <time>2012-09-08T09:42:05Z</time>
      </trkpt>
      <trkpt lat="48.68972" lon="-0.61005">
        <ele>263</ele>
        <time>2012-09-08T09:42:06Z</time>
      </trkpt>
      <trkpt lat="48.68958" lon="-0.60961">
        <ele>264</ele>
        <time>2012-09-08T09:42:16Z</time>
      </trkpt>
      <trkpt lat="48.68948" lon="-0.60936">
        <ele>264.6</ele>
        <time>2012-09-08T09:42:25Z</time>
      </trkpt>
      <trkpt lat="48.68952" lon="-0.60925">
        <ele>265</ele>
        <time>2012-09-08T09:42:32Z</time>
      </trkpt>
      <trkpt lat="48.6896" lon="-0.60916">
        <ele>264</ele>
        <time>2012-09-08T09:42:36Z</time>
      </trkpt>
      <trkpt lat="48.68999" lon="-0.6088">
        <ele>264</ele>
        <time>2012-09-08T09:42:50Z</time>
      </trkpt>
      <trkpt lat="48.69003" lon="-0.60877">
        <ele>264</ele>
        <time>2012-09-08T09:42:52Z</time>
      </trkpt>
      <trkpt lat="48.69037" lon="-0.6085">
        <ele>266.4</ele>
        <time>2012-09-08T09:43:06Z</time>
      </trkpt>
      <trkpt lat="48.69071" lon="-0.60826">
        <ele>267.4</ele>
        <time>2012-09-08T09:43:19Z</time>
      </trkpt>
      <trkpt lat="48.69082" lon="-0.60817">
        <ele>267.4</ele>
        <time>2012-09-08T09:43:24Z</time>
      </trkpt>
      <trkpt lat="48.69099" lon="-0.60807">
        <ele>267.8</ele>
        <time>2012-09-08T09:43:31Z</time>
      </trkpt>
      <trkpt lat="48.69119" lon="-0.60792">
        <ele>268.4</ele>
        <time>2012-09-08T09:43:40Z</time>
      </trkpt>
      <trkpt lat="48.69128" lon="-0.60787">
        <ele>267.8</ele>
        <time>2012-09-08T09:43:44Z</time>
      </trkpt>
      <trkpt lat="48.69163" lon="-0.60766">
        <ele>268.4</ele>
        <time>2012-09-08T09:43:57Z</time>
      </trkpt>
      <trkpt lat="48.69165" lon="-0.60764">
        <ele>268.8</ele>
        <time>2012-09-08T09:43:58Z</time>
      </trkpt>
      <trkpt lat="48.69185" lon="-0.6075">
        <ele>269.4</ele>
        <time>2012-09-08T09:44:07Z</time>
      </trkpt>
      <trkpt lat="48.69207" lon="-0.60732">
        <ele>270.8</ele>
        <time>2012-09-08T09:44:21Z</time>
      </trkpt>
      <trkpt lat="48.69235" lon="-0.6071">
        <ele>271.8</ele>
        <time>2012-09-08T09:44:34Z</time>
      </trkpt>
      <trkpt lat="48.69263" lon="-0.6069">
        <ele>273.6</ele>
        <time>2012-09-08T09:44:48Z</time>
      </trkpt>
      <trkpt lat="48.69279" lon="-0.60676">
        <ele>274.6</ele>
        <time>2012-09-08T09:44:57Z</time>
      </trkpt>
      <trkpt lat="48.69287" lon="-0.60669">
        <ele>276</ele>
        <time>2012-09-08T09:45:02Z</time>
      </trkpt>
      <trkpt lat="48.69306" lon="-0.60651">
        <ele>277</ele>
        <time>2012-09-08T09:45:16Z</time>
      </trkpt>
      <trkpt lat="48.69319" lon="-0.60644">
        <ele>277.4</ele>
        <time>2012-09-08T09:45:22Z</time>
      </trkpt>
      <trkpt lat="48.69345" lon="-0.60629">
        <ele>278.4</ele>
        <time>2012-09-08T09:45:34Z</time>
      </trkpt>
      <trkpt lat="48.69357" lon="-0.60621">
        <ele>279.4</ele>
        <time>2012-09-08T09:45:40Z</time>
      </trkpt>
      <trkpt lat="48.69364" lon="-0.60615">
        <ele>279.8</ele>
        <time>2012-09-08T09:45:44Z</time>
      </trkpt>
      <trkpt lat="48.69394" lon="-0.60594">
        <ele>281.8</ele>
        <time>2012-09-08T09:45:58Z</time>
      </trkpt>
      <trkpt lat="48.69416" lon="-0.60575">
        <ele>283.2</ele>
        <time>2012-09-08T09:46:10Z</time>
      </trkpt>
      <trkpt lat="48.69432" lon="-0.60565">
        <ele>283.8</ele>
        <time>2012-09-08T09:46:17Z</time>
      </trkpt>
      <trkpt lat="48.69449" lon="-0.60547">
        <ele>285.6</ele>
        <time>2012-09-08T09:46:27Z</time>
      </trkpt>
      <trkpt lat="48.69475" lon="-0.60532">
        <ele>286.6</ele>
        <time>2012-09-08T09:46:41Z</time>
      </trkpt>
      <trkpt lat="48.69479" lon="-0.60531">
        <ele>286.2</ele>
        <time>2012-09-08T09:46:43Z</time>
      </trkpt>
      <trkpt lat="48.69502" lon="-0.60513">
        <ele>287</ele>
        <time>2012-09-08T09:46:56Z</time>
      </trkpt>
      <trkpt lat="48.69527" lon="-0.60491">
        <ele>288.6</ele>
        <time>2012-09-08T09:47:09Z</time>
      </trkpt>
      <trkpt lat="48.69533" lon="-0.60487">
        <ele>289</ele>
        <time>2012-09-08T09:47:12Z</time>
      </trkpt>
      <trkpt lat="48.6956" lon="-0.60474">
        <ele>290.4</ele>
        <time>2012-09-08T09:47:27Z</time>
      </trkpt>
      <trkpt lat="48.69582" lon="-0.60459">
        <ele>290.4</ele>
        <time>2012-09-08T09:47:40Z</time>
      </trkpt>
      <trkpt lat="48.69585" lon="-0.60456">
        <ele>291</ele>
        <time>2012-09-08T09:47:43Z</time>
      </trkpt>
      <trkpt lat="48.69615" lon="-0.60435">
        <ele>291.4</ele>
        <time>2012-09-08T09:47:55Z</time>
      </trkpt>
      <trkpt lat="48.69635" lon="-0.60423">
        <ele>291.4</ele>
        <time>2012-09-08T09:48:04Z</time>
      </trkpt>
      <trkpt lat="48.69664" lon="-0.60404">
        <ele>292.4</ele>
        <time>2012-09-08T09:48:16Z</time>
      </trkpt>
      <trkpt lat="48.69691" lon="-0.60379">
        <ele>292.4</ele>
        <time>2012-09-08T09:48:28Z</time>
      </trkpt>
      <trkpt lat="48.69696" lon="-0.60377">
        <ele>292</ele>
        <time>2012-09-08T09:48:30Z</time>
      </trkpt>
      <trkpt lat="48.69728" lon="-0.60349">
        <ele>290.4</ele>
        <time>2012-09-08T09:48:41Z</time>
      </trkpt>
      <trkpt lat="48.69753" lon="-0.6033">
        <ele>289</ele>
        <time>2012-09-08T09:48:47Z</time>
      </trkpt>
      <trkpt lat="48.69788" lon="-0.603">
        <ele>285.6</ele>
        <time>2012-09-08T09:48:53Z</time>
      </trkpt>
      <trkpt lat="48.69801" lon="-0.6029">
        <ele>284.2</ele>
        <time>2012-09-08T09:48:55Z</time>
      </trkpt>
      <trkpt lat="48.69836" lon="-0.60269">
        <ele>282.8</ele>
        <time>2012-09-08T09:49:03Z</time>
      </trkpt>
      <trkpt lat="48.69846" lon="-0.60282">
        <ele>282.2</ele>
        <time>2012-09-08T09:49:08Z</time>
      </trkpt>
      <trkpt lat="48.69869" lon="-0.60324">
        <ele>282.2</ele>
        <time>2012-09-08T09:49:20Z</time>
      </trkpt>
      <trkpt lat="48.69872" lon="-0.60333">
        <ele>281.4</ele>
        <time>2012-09-08T09:49:23Z</time>
      </trkpt>
      <trkpt lat="48.69895" lon="-0.60394">
        <ele>279.8</ele>
        <time>2012-09-08T09:49:37Z</time>
      </trkpt>
      <trkpt lat="48.69905" lon="-0.60432">
        <ele>279.8</ele>
        <time>2012-09-08T09:49:47Z</time>
      </trkpt>
      <trkpt lat="48.69917" lon="-0.60471">
        <ele>279</ele>
        <time>2012-09-08T09:49:59Z</time>
      </trkpt>
      <trkpt lat="48.69931" lon="-0.60515">
        <ele>276.6</ele>
        <time>2012-09-08T09:50:08Z</time>
      </trkpt>
      <trkpt lat="48.69943" lon="-0.60554">
        <ele>278</ele>
        <time>2012-09-08T09:50:19Z</time>
      </trkpt>
      <trkpt lat="48.69949" lon="-0.60573">
        <ele>279</ele>
        <time>2012-09-08T09:50:26Z</time>
      </trkpt>
      <trkpt lat="48.69962" lon="-0.60614">
        <ele>279.8</ele>
        <time>2012-09-08T09:50:39Z</time>
      </trkpt>
      <trkpt lat="48.69972" lon="-0.60651">
        <ele>281.4</ele>
        <time>2012-09-08T09:50:52Z</time>
      </trkpt>
      <trkpt lat="48.69983" lon="-0.60679">
        <ele>282.8</ele>
        <time>2012-09-08T09:51:02Z</time>
      </trkpt>
      <trkpt lat="48.69987" lon="-0.60695">
        <ele>284.2</ele>
        <time>2012-09-08T09:51:08Z</time>
      </trkpt>
      <trkpt lat="48.69988" lon="-0.60702">
        <ele>283.8</ele>
        <time>2012-09-08T09:51:11Z</time>
      </trkpt>
      <trkpt lat="48.69996" lon="-0.60714">
        <ele>284.6</ele>
        <time>2012-09-08T09:51:18Z</time>
      </trkpt>
      <trkpt lat="48.70005" lon="-0.60749">
        <ele>285.2</ele>
        <time>2012-09-08T09:51:32Z</time>
      </trkpt>
      <trkpt lat="48.70011" lon="-0.60769">
        <ele>285.2</ele>
        <time>2012-09-08T09:51:39Z</time>
      </trkpt>
      <trkpt lat="48.70022" lon="-0.60804">
        <ele>285.6</ele>
        <time>2012-09-08T09:51:51Z</time>
      </trkpt>
      <trkpt lat="48.70031" lon="-0.60833">
        <ele>286.2</ele>
        <time>2012-09-08T09:52:02Z</time>
      </trkpt>
      <trkpt lat="48.70034" lon="-0.60842">
        <ele>286.6</ele>
        <time>2012-09-08T09:52:05Z</time>
      </trkpt>
      <trkpt lat="48.70044" lon="-0.6087">
        <ele>287</ele>
        <time>2012-09-08T09:52:17Z</time>
      </trkpt>
      <trkpt lat="48.7005" lon="-0.60886">
        <ele>286.6</ele>
        <time>2012-09-08T09:52:24Z</time>
      </trkpt>
      <trkpt lat="48.70053" lon="-0.60894">
        <ele>286.6</ele>
        <time>2012-09-08T09:52:27Z</time>
      </trkpt>
      <trkpt lat="48.70064" lon="-0.60931">
        <ele>287.6</ele>
        <time>2012-09-08T09:52:40Z</time>
      </trkpt>
      <trkpt lat="48.70073" lon="-0.60959">
        <ele>287.6</ele>
        <time>2012-09-08T09:52:49Z</time>
      </trkpt>
      <trkpt lat="48.70089" lon="-0.61003">
        <ele>288.6</ele>
        <time>2012-09-08T09:53:03Z</time>
      </trkpt>
      <trkpt lat="48.701" lon="-0.61039">
        <ele>289.4</ele>
        <time>2012-09-08T09:53:14Z</time>
      </trkpt>
      <trkpt lat="48.70112" lon="-0.61077">
        <ele>290.4</ele>
        <time>2012-09-08T09:53:25Z</time>
      </trkpt>
      <trkpt lat="48.70122" lon="-0.61112">
        <ele>291.4</ele>
        <time>2012-09-08T09:53:37Z</time>
      </trkpt>
      <trkpt lat="48.70132" lon="-0.61141">
        <ele>292</ele>
        <time>2012-09-08T09:53:48Z</time>
      </trkpt>
      <trkpt lat="48.70135" lon="-0.61158">
        <ele>292</ele>
        <time>2012-09-08T09:54:06Z</time>
      </trkpt>
      <trkpt lat="48.70137" lon="-0.61158">
        <ele>292.4</ele>
        <time>2012-09-08T09:54:22Z</time>
      </trkpt>
      <trkpt lat="48.70141" lon="-0.61155">
        <ele>291.4</ele>
        <time>2012-09-08T09:54:24Z</time>
      </trkpt>
      <trkpt lat="48.70174" lon="-0.61126">
        <ele>288.6</ele>
        <time>2012-09-08T09:54:32Z</time>
      </trkpt>
      <trkpt lat="48.70186" lon="-0.61117">
        <ele>287</ele>
        <time>2012-09-08T09:54:34Z</time>
      </trkpt>
      <trkpt lat="48.70214" lon="-0.61096">
        <ele>283.8</ele>
        <time>2012-09-08T09:54:38Z</time>
      </trkpt>
      <trkpt lat="48.70246" lon="-0.61072">
        <ele>280.4</ele>
        <time>2012-09-08T09:54:42Z</time>
      </trkpt>
      <trkpt lat="48.70264" lon="-0.61058">
        <ele>278.4</ele>
        <time>2012-09-08T09:54:44Z</time>
      </trkpt>
      <trkpt lat="48.70283" lon="-0.61045">
        <ele>275.6</ele>
        <time>2012-09-08T09:54:46Z</time>
      </trkpt>
      <trkpt lat="48.70322" lon="-0.61016">
        <ele>271.2</ele>
        <time>2012-09-08T09:54:50Z</time>
      </trkpt>
      <trkpt lat="48.70332" lon="-0.61009">
        <ele>271.2</ele>
        <time>2012-09-08T09:54:51Z</time>
      </trkpt>
      <trkpt lat="48.70371" lon="-0.60981">
        <ele>268.8</ele>
        <time>2012-09-08T09:54:55Z</time>
      </trkpt>
      <trkpt lat="48.7043" lon="-0.60938">
        <ele>268.4</ele>
        <time>2012-09-08T09:55:04Z</time>
      </trkpt>
      <trkpt lat="48.70433" lon="-0.60939">
        <ele>268.8</ele>
        <time>2012-09-08T09:55:05Z</time>
      </trkpt>
      <trkpt lat="48.70436" lon="-0.60942">
        <ele>269.4</ele>
        <time>2012-09-08T09:55:06Z</time>
      </trkpt>
      <trkpt lat="48.70437" lon="-0.60947">
        <ele>268.8</ele>
        <time>2012-09-08T09:55:07Z</time>
      </trkpt>
      <trkpt lat="48.70458" lon="-0.61015">
        <ele>269.8</ele>
        <time>2012-09-08T09:55:23Z</time>
      </trkpt>
      <trkpt lat="48.70471" lon="-0.61061">
        <ele>269.8</ele>
        <time>2012-09-08T09:55:36Z</time>
      </trkpt>
      <trkpt lat="48.70486" lon="-0.61103">
        <ele>268.8</ele>
        <time>2012-09-08T09:55:47Z</time>
      </trkpt>
      <trkpt lat="48.70502" lon="-0.61155">
        <ele>269.4</ele>
        <time>2012-09-08T09:55:58Z</time>
      </trkpt>
      <trkpt lat="48.7052" lon="-0.61215">
        <ele>269.8</ele>
        <time>2012-09-08T09:56:10Z</time>
      </trkpt>
      <trkpt lat="48.70542" lon="-0.61287">
        <ele>269.4</ele>
        <time>2012-09-08T09:56:23Z</time>
      </trkpt>
      <trkpt lat="48.70562" lon="-0.61352">
        <ele>270.8</ele>
        <time>2012-09-08T09:56:36Z</time>
      </trkpt>
      <trkpt lat="48.70578" lon="-0.61403">
        <ele>270.8</ele>
        <time>2012-09-08T09:56:49Z</time>
      </trkpt>
      <trkpt lat="48.70604" lon="-0.61484">
        <ele>268.8</ele>
        <time>2012-09-08T09:57:04Z</time>
      </trkpt>
      <trkpt lat="48.70625" lon="-0.61543">
        <ele>267.8</ele>
        <time>2012-09-08T09:57:16Z</time>
      </trkpt>
      <trkpt lat="48.70635" lon="-0.61583">
        <ele>267.4</ele>
        <time>2012-09-08T09:57:23Z</time>
      </trkpt>
      <trkpt lat="48.70637" lon="-0.61586">
        <ele>267</ele>
        <time>2012-09-08T09:57:24Z</time>
      </trkpt>
      <trkpt lat="48.70641" lon="-0.61587">
        <ele>267.4</ele>
        <time>2012-09-08T09:57:25Z</time>
      </trkpt>
      <trkpt lat="48.70681" lon="-0.61574">
        <ele>268.4</ele>
        <time>2012-09-08T09:57:36Z</time>
      </trkpt>
      <trkpt lat="48.70729" lon="-0.61558">
        <ele>269.4</ele>
        <time>2012-09-08T09:57:51Z</time>
      </trkpt>
      <trkpt lat="48.70773" lon="-0.61539">
        <ele>267.4</ele>
        <time>2012-09-08T09:58:04Z</time>
      </trkpt>
      <trkpt lat="48.70809" lon="-0.61526">
        <ele>265.4</ele>
        <time>2012-09-08T09:58:12Z</time>
      </trkpt>
      <trkpt lat="48.70863" lon="-0.61507">
        <ele>266</ele>
        <time>2012-09-08T09:58:25Z</time>
      </trkpt>
      <trkpt lat="48.70867" lon="-0.61506">
        <ele>265.4</ele>
        <time>2012-09-08T09:58:26Z</time>
      </trkpt>
      <trkpt lat="48.70926" lon="-0.6148">
        <ele>266</ele>
        <time>2012-09-08T09:58:41Z</time>
      </trkpt>
      <trkpt lat="48.70977" lon="-0.61443">
        <ele>267.8</ele>
        <time>2012-09-08T09:58:55Z</time>
      </trkpt>
      <trkpt lat="48.7102" lon="-0.61413">
        <ele>269.4</ele>
        <time>2012-09-08T09:59:09Z</time>
      </trkpt>
      <trkpt lat="48.7107" lon="-0.61388">
        <ele>271.8</ele>
        <time>2012-09-08T09:59:24Z</time>
      </trkpt>
      <trkpt lat="48.71087" lon="-0.61425">
        <ele>271.2</ele>
        <time>2012-09-08T09:59:35Z</time>
      </trkpt>
      <trkpt lat="48.71108" lon="-0.6149">
        <ele>269.8</ele>
        <time>2012-09-08T09:59:50Z</time>
      </trkpt>
      <trkpt lat="48.7113" lon="-0.61548">
        <ele>267.8</ele>
        <time>2012-09-08T10:00:02Z</time>
      </trkpt>
      <trkpt lat="48.71134" lon="-0.6155">
        <ele>267.4</ele>
        <time>2012-09-08T10:00:03Z</time>
      </trkpt>
      <trkpt lat="48.71163" lon="-0.61538">
        <ele>269.8</ele>
        <time>2012-09-08T10:00:15Z</time>
      </trkpt>
      <trkpt lat="48.71189" lon="-0.61534">
        <ele>272.2</ele>
        <time>2012-09-08T10:00:27Z</time>
      </trkpt>
      <trkpt lat="48.71222" lon="-0.61533">
        <ele>274.2</ele>
        <time>2012-09-08T10:00:42Z</time>
      </trkpt>
      <trkpt lat="48.71249" lon="-0.6153">
        <ele>274.6</ele>
        <time>2012-09-08T10:00:53Z</time>
      </trkpt>
      <trkpt lat="48.71274" lon="-0.61519">
        <ele>275</ele>
        <time>2012-09-08T10:01:04Z</time>
      </trkpt>
      <trkpt lat="48.71312" lon="-0.61515">
        <ele>275</ele>
        <time>2012-09-08T10:01:17Z</time>
      </trkpt>
      <trkpt lat="48.71336" lon="-0.61507">
        <ele>275</ele>
        <time>2012-09-08T10:01:27Z</time>
      </trkpt>
      <trkpt lat="48.71378" lon="-0.61508">
        <ele>274.6</ele>
        <time>2012-09-08T10:01:40Z</time>
      </trkpt>
      <trkpt lat="48.71393" lon="-0.61497">
        <ele>274.6</ele>
        <time>2012-09-08T10:01:47Z</time>
      </trkpt>
      <trkpt lat="48.71395" lon="-0.61494">
        <ele>274.6</ele>
        <time>2012-09-08T10:01:48Z</time>
      </trkpt>
      <trkpt lat="48.71396" lon="-0.61491">
        <ele>274.2</ele>
        <time>2012-09-08T10:01:49Z</time>
      </trkpt>
      <trkpt lat="48.71397" lon="-0.61489">
        <ele>275.6</ele>
        <time>2012-09-08T10:01:50Z</time>
      </trkpt>
      <trkpt lat="48.714" lon="-0.61485">
        <ele>275.6</ele>
        <time>2012-09-08T10:01:51Z</time>
      </trkpt>
      <trkpt lat="48.71403" lon="-0.61483">
        <ele>275</ele>
        <time>2012-09-08T10:01:52Z</time>
      </trkpt>
      <trkpt lat="48.71406" lon="-0.61482">
        <ele>275.6</ele>
        <time>2012-09-08T10:01:53Z</time>
      </trkpt>
      <trkpt lat="48.71409" lon="-0.61481">
        <ele>276</ele>
        <time>2012-09-08T10:01:54Z</time>
      </trkpt>
      <trkpt lat="48.71463" lon="-0.61467">
        <ele>277.4</ele>
        <time>2012-09-08T10:02:06Z</time>
      </trkpt>
      <trkpt lat="48.71505" lon="-0.61451">
        <ele>279</ele>
        <time>2012-09-08T10:02:20Z</time>
      </trkpt>
      <trkpt lat="48.71549" lon="-0.61457">
        <ele>278</ele>
        <time>2012-09-08T10:02:35Z</time>
      </trkpt>
      <trkpt lat="48.71565" lon="-0.61461">
        <ele>277</ele>
        <time>2012-09-08T10:02:39Z</time>
      </trkpt>
      <trkpt lat="48.7162" lon="-0.61472">
        <ele>273.6</ele>
        <time>2012-09-08T10:02:50Z</time>
      </trkpt>
      <trkpt lat="48.71662" lon="-0.61473">
        <ele>271.2</ele>
        <time>2012-09-08T10:02:57Z</time>
      </trkpt>
      <trkpt lat="48.71685" lon="-0.61471">
        <ele>267.8</ele>
        <time>2012-09-08T10:03:00Z</time>
      </trkpt>
      <trkpt lat="48.71703" lon="-0.61468">
        <ele>267</ele>
        <time>2012-09-08T10:03:02Z</time>
      </trkpt>
      <trkpt lat="48.71748" lon="-0.61454">
        <ele>263.6</ele>
        <time>2012-09-08T10:03:07Z</time>
      </trkpt>
      <trkpt lat="48.71765" lon="-0.61447">
        <ele>263</ele>
        <time>2012-09-08T10:03:09Z</time>
      </trkpt>
      <trkpt lat="48.71795" lon="-0.61433">
        <ele>262.2</ele>
        <time>2012-09-08T10:03:13Z</time>
      </trkpt>
      <trkpt lat="48.71801" lon="-0.61432">
        <ele>262.6</ele>
        <time>2012-09-08T10:03:14Z</time>
      </trkpt>
      <trkpt lat="48.71808" lon="-0.61432">
        <ele>262.2</ele>
        <time>2012-09-08T10:03:15Z</time>
      </trkpt>
      <trkpt lat="48.71813" lon="-0.61431">
        <ele>262.2</ele>
        <time>2012-09-08T10:03:16Z</time>
      </trkpt>
      <trkpt lat="48.71819" lon="-0.61427">
        <ele>261.6</ele>
        <time>2012-09-08T10:03:17Z</time>
      </trkpt>
      <trkpt lat="48.71824" lon="-0.61422">
        <ele>261.6</ele>
        <time>2012-09-08T10:03:18Z</time>
      </trkpt>
      <trkpt lat="48.71872" lon="-0.61379">
        <ele>260.6</ele>
        <time>2012-09-08T10:03:28Z</time>
      </trkpt>
      <trkpt lat="48.7189" lon="-0.61367">
        <ele>260.6</ele>
        <time>2012-09-08T10:03:32Z</time>
      </trkpt>
      <trkpt lat="48.71903" lon="-0.6136">
        <ele>260.6</ele>
        <time>2012-09-08T10:03:35Z</time>
      </trkpt>
      <trkpt lat="48.71906" lon="-0.61356">
        <ele>260.6</ele>
        <time>2012-09-08T10:03:36Z</time>
      </trkpt>
      <trkpt lat="48.71907" lon="-0.61351">
        <ele>260.6</ele>
        <time>2012-09-08T10:03:37Z</time>
      </trkpt>
      <trkpt lat="48.71912" lon="-0.61334">
        <ele>260.2</ele>
        <time>2012-09-08T10:03:40Z</time>
      </trkpt>
      <trkpt lat="48.71915" lon="-0.61326">
        <ele>260.2</ele>
        <time>2012-09-08T10:03:41Z</time>
      </trkpt>
      <trkpt lat="48.7193" lon="-0.61289">
        <ele>259.6</ele>
        <time>2012-09-08T10:03:47Z</time>
      </trkpt>
      <trkpt lat="48.71933" lon="-0.61284">
        <ele>258.8</ele>
        <time>2012-09-08T10:03:48Z</time>
      </trkpt>
      <trkpt lat="48.71953" lon="-0.61248">
        <ele>255.8</ele>
        <time>2012-09-08T10:03:54Z</time>
      </trkpt>
      <trkpt lat="48.71969" lon="-0.61229">
        <ele>254</ele>
        <time>2012-09-08T10:03:58Z</time>
      </trkpt>
      <trkpt lat="48.71996" lon="-0.61196">
        <ele>251</ele>
        <time>2012-09-08T10:04:06Z</time>
      </trkpt>
      <trkpt lat="48.7202" lon="-0.61161">
        <ele>247.6</ele>
        <time>2012-09-08T10:04:12Z</time>
      </trkpt>
      <trkpt lat="48.72058" lon="-0.61109">
        <ele>244.4</ele>
        <time>2012-09-08T10:04:20Z</time>
      </trkpt>
      <trkpt lat="48.72064" lon="-0.61102">
        <ele>243.4</ele>
        <time>2012-09-08T10:04:21Z</time>
      </trkpt>
      <trkpt lat="48.72074" lon="-0.61091">
        <ele>242.8</ele>
        <time>2012-09-08T10:04:23Z</time>
      </trkpt>
      <trkpt lat="48.72124" lon="-0.61051">
        <ele>242.8</ele>
        <time>2012-09-08T10:04:33Z</time>
      </trkpt>
      <trkpt lat="48.72126" lon="-0.61049">
        <ele>242.4</ele>
        <time>2012-09-08T10:04:34Z</time>
      </trkpt>
      <trkpt lat="48.72129" lon="-0.61046">
        <ele>242.4</ele>
        <time>2012-09-08T10:04:35Z</time>
      </trkpt>
      <trkpt lat="48.72136" lon="-0.61042">
        <ele>233.1</ele>
      </trkpt>
      <trkpt lat="48.72265" lon="-0.61445">
        <ele>238.8</ele>
      </trkpt>
      <trkpt lat="48.72357" lon="-0.61425">
        <ele>231.9</ele>
      </trkpt>
      <trkpt lat="48.72533" lon="-0.61455">
        <ele>223.1</ele>
      </trkpt>
      <trkpt lat="48.7257" lon="-0.61526">
        <ele>223.5</ele>
      </trkpt>
      <trkpt lat="48.72669" lon="-0.61429">
        <ele>223.9</ele>
      </trkpt>
      <trkpt lat="48.72813" lon="-0.61738">
        <ele>214.9</ele>
      </trkpt>
      <trkpt lat="48.72816" lon="-0.61753">
        <ele>215.1</ele>
      </trkpt>
      <trkpt lat="48.72906" lon="-0.61801">
        <ele>216.6</ele>
      </trkpt>
      <trkpt lat="48.7296" lon="-0.61798">
        <ele>213.3</ele>
      </trkpt>
      <trkpt lat="48.72974" lon="-0.61831">
        <ele>212.2</ele>
      </trkpt>
      <trkpt lat="48.72976" lon="-0.61865">
        <ele>211.2</ele>
      </trkpt>
      <trkpt lat="48.73028" lon="-0.61732">
        <ele>209.6</ele>
      </trkpt>
      <trkpt lat="48.73133" lon="-0.61687">
        <ele>207</ele>
      </trkpt>
      <trkpt lat="48.73161" lon="-0.61633">
        <ele>206.7</ele>
      </trkpt>
      <trkpt lat="48.73239" lon="-0.61229">
        <ele>204.1</ele>
      </trkpt>
      <trkpt lat="48.73228" lon="-0.61222">
        <ele>205</ele>
      </trkpt>
      <trkpt lat="48.73295" lon="-0.61022">
        <ele>202.7</ele>
      </trkpt>
      <trkpt lat="48.73304" lon="-0.60964">
        <ele>201.9</ele>
      </trkpt>
      <trkpt lat="48.73288" lon="-0.60905">
        <ele>201.7</ele>
      </trkpt>
      <trkpt lat="48.73321" lon="-0.6081">
        <ele>202.5</ele>
      </trkpt>
      <trkpt lat="48.73376" lon="-0.6075">
        <ele>202.5</ele>
      </trkpt>
      <trkpt lat="48.73396" lon="-0.60666">
        <ele>203</ele>
      </trkpt>
      <trkpt lat="48.7348" lon="-0.604">
        <ele>204.3</ele>
      </trkpt>
      <trkpt lat="48.73511" lon="-0.60193">
        <ele>204.6</ele>
      </trkpt>
      <trkpt lat="48.73585" lon="-0.60013">
        <ele>203.9</ele>
      </trkpt>
      <trkpt lat="48.73628" lon="-0.59931">
        <ele>202</ele>
      </trkpt>
      <trkpt lat="48.73668" lon="-0.59968">
        <ele>200.5</ele>
      </trkpt>
      <trkpt lat="48.73736" lon="-0.59975">
        <ele>196</ele>
      </trkpt>
      <trkpt lat="48.73828" lon="-0.59798">
        <ele>194.7</ele>
      </trkpt>
      <trkpt lat="48.73883" lon="-0.59847">
        <ele>192.9</ele>
      </trkpt>
      <trkpt lat="48.73927" lon="-0.59759">
        <ele>191.3</ele>
      </trkpt>
      <trkpt lat="48.74033" lon="-0.59909">
        <ele>195.1</ele>
      </trkpt>
      <trkpt lat="48.74054" lon="-0.59904">
        <ele>195.8</ele>
      </trkpt>
      <trkpt lat="48.74057" lon="-0.59952">
        <ele>197</ele>
      </trkpt>
      <trkpt lat="48.74057" lon="-0.6004">
        <ele>198.7</ele>
      </trkpt>
      <trkpt lat="48.74047" lon="-0.60089">
        <ele>199.1</ele>
      </trkpt>
      <trkpt lat="48.74052" lon="-0.60123">
        <ele>200.1</ele>
      </trkpt>
      <trkpt lat="48.7409" lon="-0.6017">
        <ele>201.9</ele>
      </trkpt>
      <trkpt lat="48.74093" lon="-0.60197">
        <ele>201.9</ele>
      </trkpt>
      <trkpt lat="48.74181" lon="-0.60266">
        <ele>202</ele>
      </trkpt>
      <trkpt lat="48.74204" lon="-0.60051">
        <ele>199.8</ele>
      </trkpt>
      <trkpt lat="48.74445" lon="-0.6018">
        <ele>193.7</ele>
      </trkpt>
      <trkpt lat="48.74524" lon="-0.60131">
        <ele>193.3</ele>
      </trkpt>
      <trkpt lat="48.74583" lon="-0.60053">
        <ele>192.6</ele>
      </trkpt>
      <trkpt lat="48.74735" lon="-0.59963">
        <ele>199.7</ele>
      </trkpt>
      <trkpt lat="48.74858" lon="-0.60374">
        <ele>203.5</ele>
      </trkpt>
      <trkpt lat="48.74908" lon="-0.60529">
        <ele>202.7</ele>
      </trkpt>
      <trkpt lat="48.74919" lon="-0.60908">
        <ele>212.8</ele>
      </trkpt>
      <trkpt lat="48.74847" lon="-0.61049">
        <ele>213.3</ele>
      </trkpt>
      <trkpt lat="48.74841" lon="-0.61116">
        <ele>214.1</ele>
      </trkpt>
      <trkpt lat="48.74876" lon="-0.61194">
        <ele>216.8</ele>
      </trkpt>
      <trkpt lat="48.75187" lon="-0.60823">
        <ele>221.2</ele>
      </trkpt>
      <trkpt lat="48.75413" lon="-0.60708">
        <ele>218</ele>
      </trkpt>
      <trkpt lat="48.75461" lon="-0.60705">
        <ele>219.8</ele>
      </trkpt>
      <trkpt lat="48.75663" lon="-0.60456">
        <ele>215.8</ele>
      </trkpt>
      <trkpt lat="48.75851" lon="-0.60353">
        <ele>208</ele>
      </trkpt>
      <trkpt lat="48.76342" lon="-0.5978">
        <ele>206.1</ele>
      </trkpt>
      <trkpt lat="48.7652" lon="-0.59497">
        <ele>195.6</ele>
      </trkpt>
      <trkpt lat="48.76627" lon="-0.5924">
        <ele>181.4</ele>
      </trkpt>
      <trkpt lat="48.76573" lon="-0.58554">
        <ele>180.7</ele>
      </trkpt>
      <trkpt lat="48.767" lon="-0.58433">
        <ele>190.1</ele>
      </trkpt>
      <trkpt lat="48.76736" lon="-0.58365">
        <ele>190.3</ele>
      </trkpt>
      <trkpt lat="48.76942" lon="-0.5831">
        <ele>196.6</ele>
      </trkpt>
      <trkpt lat="48.77152" lon="-0.58108">
        <ele>199.2</ele>
      </trkpt>
      <trkpt lat="48.7712" lon="-0.58082">
        <ele>198.3</ele>
      </trkpt>
    </trkseg>
  </trk>
</gpx>